Maracana, Brazil
Current Conditions -  °F | °C
As of 1:00 AM on Thursday 27 Nov 2014 (Local Time) from SBBE Reporting Station
Clear Clear  
Wind Chill: 79°   Ceiling: Unl
Heat Index: 82°   Visibility: 6mi
Dew Point: 73°   Wind: 8mph
Humidity: 83%   Direction: 50°NE
Pressure: 29.8"   Gusts: NA
Location:  0.6°S, 47.58°W
Report Text: SBBE 270400Z 05007KT CAVOK 26/23 Q1009
Loading
Personal Weather Stations






























Interactive Weather Map New forecast layout! Learn more

10-Day Weather Forecast

Advertisements
Track Severe Weather on mobile